sensor_id;sensor_type;location;lat;lon;timestamp;pressure;altitude;pressure_sealevel;temperature;humidity
73941;BME280;62294;48.554;10.202;2022-10-16T00:00:55;96101.44;;;12.59;91.55
73941;BME280;62294;48.554;10.202;2022-10-16T00:03:22;96105.25;;;12.51;91.83
73941;BME280;62294;48.554;10.202;2022-10-16T00:05:59;96092.72;;;12.40;92.46
73941;BME280;62294;48.554;10.202;2022-10-16T00:08:27;96093.16;;;12.37;92.31
73941;BME280;62294;48.554;10.202;2022-10-16T00:11:03;96093.31;;;12.54;91.91
73941;BME280;62294;48.554;10.202;2022-10-16T00:13:31;96086.81;;;12.50;91.95
73941;BME280;62294;48.554;10.202;2022-10-16T00:15:58;96092.28;;;12.43;92.24
73941;BME280;62294;48.554;10.202;2022-10-16T00:18:26;96101.75;;;12.39;93.09
73941;BME280;62294;48.554;10.202;2022-10-16T00:20:53;96083.44;;;12.31;93.81
73941;BME280;62294;48.554;10.202;2022-10-16T00:23:21;96098.72;;;12.24;93.70
73941;BME280;62294;48.554;10.202;2022-10-16T00:25:55;96102.50;;;12.17;93.80
73941;BME280;62294;48.554;10.202;2022-10-16T00:28:22;96092.31;;;12.14;93.53
73941;BME280;62294;48.554;10.202;2022-10-16T00:30:50;96094.50;;;12.17;93.27
73941;BME280;62294;48.554;10.202;2022-10-16T00:33:17;96094.28;;;12.18;92.97
73941;BME280;62294;48.554;10.202;2022-10-16T00:35:43;96101.09;;;12.14;92.98
73941;BME280;62294;48.554;10.202;2022-10-16T00:38:10;96091.50;;;12.13;92.48
73941;BME280;62294;48.554;10.202;2022-10-16T00:40:37;96097.72;;;12.07;93.41
73941;BME280;62294;48.554;10.202;2022-10-16T00:43:12;96089.72;;;12.07;93.03
73941;BME280;62294;48.554;10.202;2022-10-16T00:45:40;96078.97;;;12.02;93.46
73941;BME280;62294;48.554;10.202;2022-10-16T00:48:11;96085.66;;;11.93;93.64
73941;BME280;62294;48.554;10.202;2022-10-16T00:50:39;96092.22;;;11.90;93.40
73941;BME280;62294;48.554;10.202;2022-10-16T00:53:08;96099.41;;;11.90;93.62
73941;BME280;62294;48.554;10.202;2022-10-16T00:55:35;96105.50;;;11.79;93.06
73941;BME280;62294;48.554;10.202;2022-10-16T00:58:07;96108.00;;;11.74;93.20
73941;BME280;62294;48.554;10.202;2022-10-16T01:00:34;96104.00;;;11.65;93.02
73941;BME280;62294;48.554;10.202;2022-10-16T01:03:02;96103.28;;;11.58;93.96
73941;BME280;62294;48.554;10.202;2022-10-16T01:05:38;96104.59;;;11.49;93.88
73941;BME280;62294;48.554;10.202;2022-10-16T01:08:19;96107.19;;;11.37;93.45
73941;BME280;62294;48.554;10.202;2022-10-16T01:13:41;96113.34;;;11.37;94.58
73941;BME280;62294;48.554;10.202;2022-10-16T01:16:32;96116.28;;;11.29;94.13
73941;BME280;62294;48.554;10.202;2022-10-16T01:22:09;96103.22;;;11.28;94.33
73941;BME280;62294;48.554;10.202;2022-10-16T01:24:41;96103.88;;;11.23;94.12
73941;BME280;62294;48.554;10.202;2022-10-16T01:27:30;96110.53;;;11.14;93.90
73941;BME280;62294;48.554;10.202;2022-10-16T01:30:21;96112.50;;;11.01;93.87
73941;BME280;62294;48.554;10.202;2022-10-16T01:32:54;96120.78;;;10.93;93.96
73941;BME280;62294;48.554;10.202;2022-10-16T01:35:32;96104.44;;;10.89;94.68
73941;BME280;62294;48.554;10.202;2022-10-16T01:40:46;96103.53;;;10.95;94.26
73941;BME280;62294;48.554;10.202;2022-10-16T01:43:17;96097.63;;;10.93;94.41
73941;BME280;62294;48.554;10.202;2022-10-16T01:45:45;96108.28;;;10.93;94.56
73941;BME280;62294;48.554;10.202;2022-10-16T01:48:14;96101.19;;;10.87;94.67
73941;BME280;62294;48.554;10.202;2022-10-16T01:50:44;96109.28;;;10.74;94.88
73941;BME280;62294;48.554;10.202;2022-10-16T01:53:15;96104.81;;;10.68;94.56
73941;BME280;62294;48.554;10.202;2022-10-16T01:55:45;96114.94;;;10.59;94.10
73941;BME280;62294;48.554;10.202;2022-10-16T01:58:13;96115.97;;;10.58;94.37
73941;BME280;62294;48.554;10.202;2022-10-16T02:00:43;96118.63;;;10.58;94.51
73941;BME280;62294;48.554;10.202;2022-10-16T02:03:12;96122.25;;;10.64;94.35
73941;BME280;62294;48.554;10.202;2022-10-16T02:08:14;96112.31;;;10.78;94.33
73941;BME280;62294;48.554;10.202;2022-10-16T02:10:41;96110.19;;;10.86;93.83
73941;BME280;62294;48.554;10.202;2022-10-16T02:13:11;96111.41;;;10.90;94.39
73941;BME280;62294;48.554;10.202;2022-10-16T02:15:40;96111.59;;;10.89;94.05
73941;BME280;62294;48.554;10.202;2022-10-16T02:18:07;96105.91;;;10.85;94.18
73941;BME280;62294;48.554;10.202;2022-10-16T02:20:50;96110.19;;;10.86;94.29
73941;BME280;62294;48.554;10.202;2022-10-16T02:23:24;96118.78;;;10.88;94.32
73941;BME280;62294;48.554;10.202;2022-10-16T02:25:56;96117.91;;;10.94;94.21
73941;BME280;62294;48.554;10.202;2022-10-16T02:28:35;96123.38;;;10.99;94.14
73941;BME280;62294;48.554;10.202;2022-10-16T02:31:08;96113.75;;;10.98;94.12
73941;BME280;62294;48.554;10.202;2022-10-16T02:33:38;96124.97;;;11.00;94.29
73941;BME280;62294;48.554;10.202;2022-10-16T02:36:05;96133.16;;;10.81;94.71
73941;BME280;62294;48.554;10.202;2022-10-16T02:38:32;96132.63;;;10.72;95.67
73941;BME280;62294;48.554;10.202;2022-10-16T02:40:59;96121.28;;;10.83;94.77
73941;BME280;62294;48.554;10.202;2022-10-16T02:43:26;96122.78;;;10.97;94.70
73941;BME280;62294;48.554;10.202;2022-10-16T02:45:53;96126.03;;;10.99;94.84
73941;BME280;62294;48.554;10.202;2022-10-16T02:48:19;96144.50;;;11.12;94.25
73941;BME280;62294;48.554;10.202;2022-10-16T02:50:46;96135.88;;;11.17;94.26
73941;BME280;62294;48.554;10.202;2022-10-16T02:53:12;96136.81;;;11.04;94.37
73941;BME280;62294;48.554;10.202;2022-10-16T02:55:39;96134.47;;;11.14;94.56
73941;BME280;62294;48.554;10.202;2022-10-16T02:58:05;96131.53;;;11.22;94.27
73941;BME280;62294;48.554;10.202;2022-10-16T03:00:31;96137.56;;;11.29;94.51
73941;BME280;62294;48.554;10.202;2022-10-16T03:02:58;96131.38;;;11.35;94.14
73941;BME280;62294;48.554;10.202;2022-10-16T03:05:25;96133.66;;;11.32;94.48
73941;BME280;62294;48.554;10.202;2022-10-16T03:07:51;96127.75;;;11.30;93.64
73941;BME280;62294;48.554;10.202;2022-10-16T03:10:19;96128.41;;;11.43;93.82
73941;BME280;62294;48.554;10.202;2022-10-16T03:12:45;96130.41;;;11.48;93.32
73941;BME280;62294;48.554;10.202;2022-10-16T03:15:12;96125.91;;;11.49;93.75
73941;BME280;62294;48.554;10.202;2022-10-16T03:17:38;96133.59;;;11.57;93.51
73941;BME280;62294;48.554;10.202;2022-10-16T03:20:05;96145.44;;;11.61;93.49
73941;BME280;62294;48.554;10.202;2022-10-16T03:22:32;96154.91;;;11.57;94.10
73941;BME280;62294;48.554;10.202;2022-10-16T03:24:58;96157.91;;;11.42;94.98
73941;BME280;62294;48.554;10.202;2022-10-16T03:27:24;96124.72;;;11.45;95.56
73941;BME280;62294;48.554;10.202;2022-10-16T03:29:51;96100.16;;;11.61;95.03
73941;BME280;62294;48.554;10.202;2022-10-16T03:32:18;96115.09;;;11.62;95.41
73941;BME280;62294;48.554;10.202;2022-10-16T03:34:46;96114.41;;;11.84;94.93
73941;BME280;62294;48.554;10.202;2022-10-16T03:37:12;96130.47;;;11.78;94.70
73941;BME280;62294;48.554;10.202;2022-10-16T03:39:39;96143.69;;;11.66;95.11
73941;BME280;62294;48.554;10.202;2022-10-16T03:42:05;96131.06;;;11.62;95.25
73941;BME280;62294;48.554;10.202;2022-10-16T03:44:32;96135.94;;;11.65;95.01
73941;BME280;62294;48.554;10.202;2022-10-16T03:46:58;96134.06;;;11.72;95.18
73941;BME280;62294;48.554;10.202;2022-10-16T03:49:25;96125.16;;;11.78;94.57
73941;BME280;62294;48.554;10.202;2022-10-16T03:51:51;96127.63;;;11.79;94.28
73941;BME280;62294;48.554;10.202;2022-10-16T03:54:18;96132.41;;;11.71;94.55
73941;BME280;62294;48.554;10.202;2022-10-16T03:56:44;96135.91;;;11.71;94.47
73941;BME280;62294;48.554;10.202;2022-10-16T03:59:11;96134.63;;;11.74;94.37
73941;BME280;62294;48.554;10.202;2022-10-16T04:01:37;96124.81;;;11.74;93.95
73941;BME280;62294;48.554;10.202;2022-10-16T04:04:04;96129.31;;;11.74;93.90
73941;BME280;62294;48.554;10.202;2022-10-16T04:06:31;96131.06;;;11.62;94.10
73941;BME280;62294;48.554;10.202;2022-10-16T04:08:57;96134.56;;;11.44;95.04
73941;BME280;62294;48.554;10.202;2022-10-16T04:11:23;96126.50;;;11.32;96.03
73941;BME280;62294;48.554;10.202;2022-10-16T04:13:50;96125.97;;;11.24;95.91
73941;BME280;62294;48.554;10.202;2022-10-16T04:16:16;96129.38;;;11.13;96.10
73941;BME280;62294;48.554;10.202;2022-10-16T04:18:43;96130.63;;;11.10;96.15
73941;BME280;62294;48.554;10.202;2022-10-16T04:21:10;96135.03;;;10.98;96.53
73941;BME280;62294;48.554;10.202;2022-10-16T04:23:36;96131.03;;;10.89;96.55
73941;BME280;62294;48.554;10.202;2022-10-16T04:26:03;96126.03;;;10.99;96.13
73941;BME280;62294;48.554;10.202;2022-10-16T04:28:29;96127.56;;;11.07;96.26
73941;BME280;62294;48.554;10.202;2022-10-16T04:30:56;96135.94;;;11.10;95.19
73941;BME280;62294;48.554;10.202;2022-10-16T04:33:23;96156.63;;;11.08;95.04
73941;BME280;62294;48.554;10.202;2022-10-16T04:35:56;96164.44;;;11.03;94.98
73941;BME280;62294;48.554;10.202;2022-10-16T04:38:22;96164.03;;;11.06;95.40
73941;BME280;62294;48.554;10.202;2022-10-16T04:40:49;96164.03;;;11.06;95.01
73941;BME280;62294;48.554;10.202;2022-10-16T04:43:15;96162.59;;;11.04;95.20
73941;BME280;62294;48.554;10.202;2022-10-16T04:45:42;96158.97;;;10.98;95.16
73941;BME280;62294;48.554;10.202;2022-10-16T04:48:09;96150.63;;;10.95;95.37
73941;BME280;62294;48.554;10.202;2022-10-16T04:50:35;96147.72;;;10.96;95.15
73941;BME280;62294;48.554;10.202;2022-10-16T04:53:02;96153.06;;;10.96;95.47
73941;BME280;62294;48.554;10.202;2022-10-16T04:55:28;96160.16;;;11.02;95.18
73941;BME280;62294;48.554;10.202;2022-10-16T04:57:56;96151.56;;;11.00;95.18
73941;BME280;62294;48.554;10.202;2022-10-16T05:00:22;96157.72;;;11.01;94.97
73941;BME280;62294;48.554;10.202;2022-10-16T05:02:51;96167.75;;;10.99;95.20
73941;BME280;62294;48.554;10.202;2022-10-16T05:05:18;96166.19;;;10.91;94.82
73941;BME280;62294;48.554;10.202;2022-10-16T05:07:47;96170.16;;;10.82;95.09
73941;BME280;62294;48.554;10.202;2022-10-16T05:10:16;96167.53;;;10.76;94.55
73941;BME280;62294;48.554;10.202;2022-10-16T05:12:42;96169.88;;;10.65;94.66
73941;BME280;62294;48.554;10.202;2022-10-16T05:15:09;96173.03;;;10.56;95.23
73941;BME280;62294;48.554;10.202;2022-10-16T05:17:36;96167.53;;;10.51;95.48
73941;BME280;62294;48.554;10.202;2022-10-16T05:20:09;96167.38;;;10.46;94.39
73941;BME280;62294;48.554;10.202;2022-10-16T05:22:36;96169.44;;;10.44;95.26
73941;BME280;62294;48.554;10.202;2022-10-16T05:25:04;96166.13;;;10.48;94.56
73941;BME280;62294;48.554;10.202;2022-10-16T05:27:30;96169.00;;;10.47;95.06
73941;BME280;62294;48.554;10.202;2022-10-16T05:29:56;96167.78;;;10.43;95.32
73941;BME280;62294;48.554;10.202;2022-10-16T05:32:23;96158.44;;;10.40;95.69
73941;BME280;62294;48.554;10.202;2022-10-16T05:34:50;96152.72;;;10.37;95.70
73941;BME280;62294;48.554;10.202;2022-10-16T05:37:16;96158.19;;;10.42;95.79
73941;BME280;62294;48.554;10.202;2022-10-16T05:39:43;96166.16;;;10.42;95.95
73941;BME280;62294;48.554;10.202;2022-10-16T05:42:10;96160.84;;;10.42;95.49
73941;BME280;62294;48.554;10.202;2022-10-16T05:44:36;96168.19;;;10.46;95.57
73941;BME280;62294;48.554;10.202;2022-10-16T05:47:03;96174.69;;;10.50;95.06
73941;BME280;62294;48.554;10.202;2022-10-16T05:49:29;96170.97;;;10.58;95.17
73941;BME280;62294;48.554;10.202;2022-10-16T05:51:55;96176.28;;;10.58;94.80
73941;BME280;62294;48.554;10.202;2022-10-16T05:54:22;96188.31;;;10.60;95.01
73941;BME280;62294;48.554;10.202;2022-10-16T05:56:49;96183.72;;;10.74;95.03
73941;BME280;62294;48.554;10.202;2022-10-16T05:59:16;96198.75;;;10.87;95.13
73941;BME280;62294;48.554;10.202;2022-10-16T06:01:43;96196.13;;;10.80;94.89
73941;BME280;62294;48.554;10.202;2022-10-16T06:04:09;96199.44;;;10.76;95.07
73941;BME280;62294;48.554;10.202;2022-10-16T06:06:36;96200.63;;;10.80;94.94
73941;BME280;62294;48.554;10.202;2022-10-16T06:09:04;96202.00;;;10.89;95.83
73941;BME280;62294;48.554;10.202;2022-10-16T06:11:31;96200.97;;;11.14;95.34
73941;BME280;62294;48.554;10.202;2022-10-16T06:13:59;96203.81;;;11.37;94.92
73941;BME280;62294;48.554;10.202;2022-10-16T06:16:29;96202.19;;;11.36;93.97
73941;BME280;62294;48.554;10.202;2022-10-16T06:18:56;96210.19;;;11.55;94.57
73941;BME280;62294;48.554;10.202;2022-10-16T06:21:24;96220.38;;;11.39;94.17
73941;BME280;62294;48.554;10.202;2022-10-16T06:23:51;96215.78;;;11.28;95.02
73941;BME280;62294;48.554;10.202;2022-10-16T06:26:20;96217.72;;;11.39;94.77
73941;BME280;62294;48.554;10.202;2022-10-16T06:28:47;96225.03;;;11.44;95.14
73941;BME280;62294;48.554;10.202;2022-10-16T06:31:14;96217.34;;;11.79;94.95
73941;BME280;62294;48.554;10.202;2022-10-16T06:33:41;96225.31;;;11.97;94.26
73941;BME280;62294;48.554;10.202;2022-10-16T06:36:13;96221.53;;;12.04;92.52
73941;BME280;62294;48.554;10.202;2022-10-16T06:38:41;96234.53;;;12.13;92.85
73941;BME280;62294;48.554;10.202;2022-10-16T06:41:11;96229.50;;;12.23;93.48
73941;BME280;62294;48.554;10.202;2022-10-16T06:43:38;96231.84;;;12.60;93.57
73941;BME280;62294;48.554;10.202;2022-10-16T06:46:06;96228.56;;;12.88;93.07
73941;BME280;62294;48.554;10.202;2022-10-16T06:48:34;96226.69;;;13.30;91.09
73941;BME280;62294;48.554;10.202;2022-10-16T06:53:35;96230.63;;;13.62;90.62
73941;BME280;62294;48.554;10.202;2022-10-16T06:56:21;96235.03;;;13.91;89.07
73941;BME280;62294;48.554;10.202;2022-10-16T06:58:49;96242.31;;;14.07;88.58
73941;BME280;62294;48.554;10.202;2022-10-16T07:01:18;96255.97;;;14.22;88.79
73941;BME280;62294;48.554;10.202;2022-10-16T07:03:45;96249.00;;;14.33;86.89
73941;BME280;62294;48.554;10.202;2022-10-16T07:06:15;96255.44;;;13.97;87.38
73941;BME280;62294;48.554;10.202;2022-10-16T07:08:43;96263.72;;;13.73;88.09
73941;BME280;62294;48.554;10.202;2022-10-16T07:11:12;96264.44;;;13.68;88.06
73941;BME280;62294;48.554;10.202;2022-10-16T07:13:40;96280.66;;;13.90;88.26
73941;BME280;62294;48.554;10.202;2022-10-16T07:16:10;96278.91;;;14.07;88.03
73941;BME280;62294;48.554;10.202;2022-10-16T07:18:37;96282.16;;;13.97;87.06
73941;BME280;62294;48.554;10.202;2022-10-16T07:21:11;96290.66;;;13.83;86.84
73941;BME280;62294;48.554;10.202;2022-10-16T07:23:38;96293.34;;;13.48;88.35
73941;BME280;62294;48.554;10.202;2022-10-16T07:26:05;96284.28;;;13.72;88.73
73941;BME280;62294;48.554;10.202;2022-10-16T07:28:33;96281.84;;;13.94;88.34
73941;BME280;62294;48.554;10.202;2022-10-16T07:31:04;96291.56;;;14.11;88.27
73941;BME280;62294;48.554;10.202;2022-10-16T07:33:31;96290.75;;;13.99;87.92
73941;BME280;62294;48.554;10.202;2022-10-16T07:35:58;96288.09;;;13.99;88.29
73941;BME280;62294;48.554;10.202;2022-10-16T07:38:24;96283.69;;;13.82;88.67
73941;BME280;62294;48.554;10.202;2022-10-16T07:41:07;96292.53;;;13.94;88.74
73941;BME280;62294;48.554;10.202;2022-10-16T07:43:35;96286.81;;;13.90;88.90
73941;BME280;62294;48.554;10.202;2022-10-16T07:46:02;96297.25;;;13.92;89.01
73941;BME280;62294;48.554;10.202;2022-10-16T07:48:33;96294.84;;;13.90;89.07
73941;BME280;62294;48.554;10.202;2022-10-16T07:51:01;96305.19;;;13.75;90.05
73941;BME280;62294;48.554;10.202;2022-10-16T07:53:28;96303.56;;;13.74;90.30
73941;BME280;62294;48.554;10.202;2022-10-16T07:55:59;96299.03;;;13.75;89.99
73941;BME280;62294;48.554;10.202;2022-10-16T07:58:27;96307.63;;;13.77;89.65
73941;BME280;62294;48.554;10.202;2022-10-16T08:00:54;96310.25;;;13.42;91.28
73941;BME280;62294;48.554;10.202;2022-10-16T08:03:22;96312.94;;;13.53;91.03
73941;BME280;62294;48.554;10.202;2022-10-16T08:05:49;96315.72;;;13.47;91.51
73941;BME280;62294;48.554;10.202;2022-10-16T08:08:18;96324.09;;;13.50;91.38
73941;BME280;62294;48.554;10.202;2022-10-16T08:10:46;96325.72;;;13.51;90.57
73941;BME280;62294;48.554;10.202;2022-10-16T08:13:12;96330.50;;;13.61;90.35
73941;BME280;62294;48.554;10.202;2022-10-16T08:15:42;96341.19;;;13.61;89.87
73941;BME280;62294;48.554;10.202;2022-10-16T08:18:10;96333.28;;;13.66;90.27
73941;BME280;62294;48.554;10.202;2022-10-16T08:20:37;96330.97;;;13.81;90.59
73941;BME280;62294;48.554;10.202;2022-10-16T08:23:04;96334.13;;;13.67;90.14
73941;BME280;62294;48.554;10.202;2022-10-16T08:25:31;96338.97;;;13.81;89.75
73941;BME280;62294;48.554;10.202;2022-10-16T08:27:57;96339.78;;;13.70;89.98
73941;BME280;62294;48.554;10.202;2022-10-16T08:30:24;96359.31;;;13.82;89.52
73941;BME280;62294;48.554;10.202;2022-10-16T08:32:51;96344.31;;;13.70;90.03
73941;BME280;62294;48.554;10.202;2022-10-16T08:35:17;96360.13;;;13.71;90.40
73941;BME280;62294;48.554;10.202;2022-10-16T08:37:43;96363.03;;;13.93;89.82
73941;BME280;62294;48.554;10.202;2022-10-16T08:40:18;96363.72;;;13.88;89.10
73941;BME280;62294;48.554;10.202;2022-10-16T08:45:51;96380.00;;;13.98;90.34
73941;BME280;62294;48.554;10.202;2022-10-16T08:48:27;96379.41;;;14.19;88.68
73941;BME280;62294;48.554;10.202;2022-10-16T08:50:57;96382.44;;;14.23;87.54
73941;BME280;62294;48.554;10.202;2022-10-16T08:53:30;96382.47;;;14.46;86.78
73941;BME280;62294;48.554;10.202;2022-10-16T08:56:00;96372.56;;;14.47;86.74
73941;BME280;62294;48.554;10.202;2022-10-16T08:58:28;96379.31;;;14.38;87.03
73941;BME280;62294;48.554;10.202;2022-10-16T09:00:58;96375.03;;;14.37;87.54
73941;BME280;62294;48.554;10.202;2022-10-16T09:04:03;96379.06;;;14.51;87.69
73941;BME280;62294;48.554;10.202;2022-10-16T09:06:33;96383.59;;;14.27;88.05
73941;BME280;62294;48.554;10.202;2022-10-16T09:20:40;96375.88;;;14.65;87.19
73941;BME280;62294;48.554;10.202;2022-10-16T09:23:18;96387.72;;;14.81;86.88
73941;BME280;62294;48.554;10.202;2022-10-16T09:25:47;96385.47;;;15.01;85.80
73941;BME280;62294;48.554;10.202;2022-10-16T09:28:17;96389.59;;;15.09;84.80
73941;BME280;62294;48.554;10.202;2022-10-16T09:30:45;96382.81;;;15.18;85.86
73941;BME280;62294;48.554;10.202;2022-10-16T09:33:12;96389.28;;;15.05;85.34
73941;BME280;62294;48.554;10.202;2022-10-16T09:35:50;96384.25;;;15.09;84.84
73941;BME280;62294;48.554;10.202;2022-10-16T09:38:26;96389.19;;;15.00;84.50
73941;BME280;62294;48.554;10.202;2022-10-16T09:40:52;96392.47;;;14.90;85.20
73941;BME280;62294;48.554;10.202;2022-10-16T09:43:45;96400.50;;;14.79;85.35
73941;BME280;62294;48.554;10.202;2022-10-16T09:46:33;96399.34;;;14.86;85.91
73941;BME280;62294;48.554;10.202;2022-10-16T09:49:01;96405.38;;;14.93;85.04
73941;BME280;62294;48.554;10.202;2022-10-16T09:51:33;96400.16;;;15.15;85.39
73941;BME280;62294;48.554;10.202;2022-10-16T09:54:14;96407.88;;;15.12;84.97
73941;BME280;62294;48.554;10.202;2022-10-16T09:56:41;96410.28;;;15.53;83.90
73941;BME280;62294;48.554;10.202;2022-10-16T09:59:14;96410.13;;;15.59;83.30
73941;BME280;62294;48.554;10.202;2022-10-16T10:04:11;96412.75;;;16.21;80.96
73941;BME280;62294;48.554;10.202;2022-10-16T10:06:45;96413.97;;;16.30;78.81
73941;BME280;62294;48.554;10.202;2022-10-16T10:09:20;96419.75;;;15.89;80.55
73941;BME280;62294;48.554;10.202;2022-10-16T10:11:54;96429.66;;;16.05;80.18
73941;BME280;62294;48.554;10.202;2022-10-16T10:14:23;96419.34;;;15.97;80.52
73941;BME280;62294;48.554;10.202;2022-10-16T10:16:53;96406.81;;;15.69;81.33
73941;BME280;62294;48.554;10.202;2022-10-16T10:19:28;96419.00;;;15.77;80.71
73941;BME280;62294;48.554;10.202;2022-10-16T10:21:58;96414.47;;;16.10;81.50
73941;BME280;62294;48.554;10.202;2022-10-16T10:24:24;96418.00;;;16.49;78.92
73941;BME280;62294;48.554;10.202;2022-10-16T10:26:59;96412.47;;;16.39;79.91
73941;BME280;62294;48.554;10.202;2022-10-16T10:29:58;96414.34;;;16.39;78.97
73941;BME280;62294;48.554;10.202;2022-10-16T10:32:43;96416.91;;;16.83;78.12
73941;BME280;62294;48.554;10.202;2022-10-16T10:35:38;96414.75;;;16.47;78.13
73941;BME280;62294;48.554;10.202;2022-10-16T10:40:55;96413.19;;;16.68;78.43
73941;BME280;62294;48.554;10.202;2022-10-16T10:43:38;96412.03;;;17.02;77.89
73941;BME280;62294;48.554;10.202;2022-10-16T10:46:15;96410.75;;;17.10;76.18
73941;BME280;62294;48.554;10.202;2022-10-16T10:54:28;96408.06;;;17.31;74.84
73941;BME280;62294;48.554;10.202;2022-10-16T10:57:14;96419.22;;;17.45;74.56
73941;BME280;62294;48.554;10.202;2022-10-16T11:00:06;96408.47;;;17.45;74.59
73941;BME280;62294;48.554;10.202;2022-10-16T11:03:00;96401.47;;;17.65;72.86
73941;BME280;62294;48.554;10.202;2022-10-16T11:05:38;96400.66;;;17.43;74.55
73941;BME280;62294;48.554;10.202;2022-10-16T11:08:12;96399.41;;;17.51;74.32
73941;BME280;62294;48.554;10.202;2022-10-16T11:11:02;96402.09;;;17.51;74.47
73941;BME280;62294;48.554;10.202;2022-10-16T11:13:38;96388.03;;;17.65;74.18
73941;BME280;62294;48.554;10.202;2022-10-16T11:16:17;96389.22;;;17.53;73.72
73941;BME280;62294;48.554;10.202;2022-10-16T11:18:49;96393.41;;;17.44;73.22
73941;BME280;62294;48.554;10.202;2022-10-16T11:21:19;96390.56;;;17.29;75.26
73941;BME280;62294;48.554;10.202;2022-10-16T11:23:53;96386.88;;;17.35;74.20
73941;BME280;62294;48.554;10.202;2022-10-16T11:26:25;96389.06;;;17.16;75.30
73941;BME280;62294;48.554;10.202;2022-10-16T11:28:55;96388.13;;;17.27;74.84
73941;BME280;62294;48.554;10.202;2022-10-16T11:31:34;96382.09;;;17.42;74.38
73941;BME280;62294;48.554;10.202;2022-10-16T11:34:19;96390.72;;;17.44;74.33
73941;BME280;62294;48.554;10.202;2022-10-16T11:36:52;96390.31;;;17.52;74.26
73941;BME280;62294;48.554;10.202;2022-10-16T11:39:27;96393.97;;;17.46;74.83
73941;BME280;62294;48.554;10.202;2022-10-16T11:42:16;96380.59;;;17.51;74.22
73941;BME280;62294;48.554;10.202;2022-10-16T11:45:02;96388.66;;;17.24;74.83
73941;BME280;62294;48.554;10.202;2022-10-16T11:47:41;96385.75;;;17.31;75.74
73941;BME280;62294;48.554;10.202;2022-10-16T11:50:34;96387.75;;;17.40;74.99
73941;BME280;62294;48.554;10.202;2022-10-16T11:53:16;96389.56;;;17.35;75.01
73941;BME280;62294;48.554;10.202;2022-10-16T11:55:45;96383.81;;;17.26;74.62
73941;BME280;62294;48.554;10.202;2022-10-16T11:58:22;96387.38;;;17.32;75.37
73941;BME280;62294;48.554;10.202;2022-10-16T12:01:13;96390.38;;;17.62;74.99
73941;BME280;62294;48.554;10.202;2022-10-16T12:09:02;96379.19;;;18.02;71.58
73941;BME280;62294;48.554;10.202;2022-10-16T12:11:38;96385.44;;;18.12;72.20
73941;BME280;62294;48.554;10.202;2022-10-16T12:20:12;96380.69;;;18.61;72.04
73941;BME280;62294;48.554;10.202;2022-10-16T12:22:49;96378.09;;;18.81;68.75
73941;BME280;62294;48.554;10.202;2022-10-16T12:28:04;96379.88;;;19.33;68.35
73941;BME280;62294;48.554;10.202;2022-10-16T12:30:34;96377.13;;;19.12;68.05
73941;BME280;62294;48.554;10.202;2022-10-16T12:33:16;96375.78;;;19.15;68.07
73941;BME280;62294;48.554;10.202;2022-10-16T12:35:45;96388.75;;;19.23;66.75
73941;BME280;62294;48.554;10.202;2022-10-16T12:38:17;96372.34;;;19.30;68.38
73941;BME280;62294;48.554;10.202;2022-10-16T12:40:47;96376.91;;;19.29;66.83
73941;BME280;62294;48.554;10.202;2022-10-16T12:43:28;96375.81;;;19.20;67.07
73941;BME280;62294;48.554;10.202;2022-10-16T12:46:21;96378.88;;;19.44;67.09
73941;BME280;62294;48.554;10.202;2022-10-16T12:48:46;96374.06;;;19.71;66.00
73941;BME280;62294;48.554;10.202;2022-10-16T13:02:39;96370.81;;;19.84;65.66
73941;BME280;62294;48.554;10.202;2022-10-16T13:14:12;96380.81;;;19.94;64.05
73941;BME280;62294;48.554;10.202;2022-10-16T13:23:13;96391.59;;;19.89;63.91
73941;BME280;62294;48.554;10.202;2022-10-16T13:25:46;96392.66;;;19.72;63.97
73941;BME280;62294;48.554;10.202;2022-10-16T13:28:21;96385.13;;;20.00;62.51
73941;BME280;62294;48.554;10.202;2022-10-16T13:30:56;96386.19;;;20.04;63.01
73941;BME280;62294;48.554;10.202;2022-10-16T13:33:30;96379.16;;;20.18;62.44
73941;BME280;62294;48.554;10.202;2022-10-16T13:35:58;96382.16;;;19.96;62.91
73941;BME280;62294;48.554;10.202;2022-10-16T13:38:30;96378.91;;;19.84;63.76
73941;BME280;62294;48.554;10.202;2022-10-16T13:41:04;96393.22;;;20.05;64.09
73941;BME280;62294;48.554;10.202;2022-10-16T13:43:40;96381.06;;;20.17;62.70
73941;BME280;62294;48.554;10.202;2022-10-16T13:46:21;96388.91;;;19.99;63.01
73941;BME280;62294;48.554;10.202;2022-10-16T13:49:03;96387.53;;;19.86;63.58
73941;BME280;62294;48.554;10.202;2022-10-16T13:51:32;96393.22;;;20.05;63.36
73941;BME280;62294;48.554;10.202;2022-10-16T13:53:59;96394.03;;;20.20;63.27
73941;BME280;62294;48.554;10.202;2022-10-16T13:56:28;96392.69;;;20.38;61.60
73941;BME280;62294;48.554;10.202;2022-10-16T13:59:01;96398.91;;;20.28;61.16
73941;BME280;62294;48.554;10.202;2022-10-16T14:01:41;96395.69;;;20.21;61.84
73941;BME280;62294;48.554;10.202;2022-10-16T14:04:11;96400.81;;;20.28;60.93
73941;BME280;62294;48.554;10.202;2022-10-16T14:06:46;96393.25;;;20.30;61.18
73941;BME280;62294;48.554;10.202;2022-10-16T14:09:27;96404.56;;;20.27;61.43
73941;BME280;62294;48.554;10.202;2022-10-16T14:12:03;96404.84;;;20.30;61.95
73941;BME280;62294;48.554;10.202;2022-10-16T14:14:40;96402.94;;;20.16;62.05
73941;BME280;62294;48.554;10.202;2022-10-16T14:17:34;96399.97;;;20.07;63.06
73941;BME280;62294;48.554;10.202;2022-10-16T14:20:05;96395.94;;;19.90;64.40
73941;BME280;62294;48.554;10.202;2022-10-16T14:22:38;96395.34;;;19.88;64.13
73941;BME280;62294;48.554;10.202;2022-10-16T14:28:00;96393.22;;;19.90;65.65
73941;BME280;62294;48.554;10.202;2022-10-16T14:30:35;96396.44;;;20.02;65.67
73941;BME280;62294;48.554;10.202;2022-10-16T14:33:18;96401.31;;;20.05;64.01